createdAt,value
2023-03-06T00:01:29.916Z,0.39
2023-03-06T00:03:58.725Z,0.59
2023-03-06T00:06:27.708Z,0.63
2023-03-06T00:08:56.633Z,0.35
2023-03-06T00:11:25.431Z,0.61
2023-03-06T00:13:54.255Z,0.76
2023-03-06T00:16:25.025Z,0.87
2023-03-06T00:18:53.921Z,0.86
2023-03-06T00:21:22.924Z,0.51
2023-03-06T00:23:51.731Z,0.59
2023-03-06T00:26:20.579Z,0.67
2023-03-06T00:28:49.411Z,0.49
2023-03-06T00:31:19.008Z,0.46
2023-03-06T00:33:49.566Z,0.54
2023-03-06T00:36:19.652Z,0.25
2023-03-06T00:38:48.508Z,0.26
2023-03-06T00:41:17.316Z,0.29
2023-03-06T00:43:46.107Z,0.30
2023-03-06T00:46:14.960Z,0.29
2023-03-06T00:48:45.078Z,0.38
2023-03-06T00:51:16.696Z,0.41
2023-03-06T00:53:45.564Z,0.49
2023-03-06T00:56:14.401Z,0.58
2023-03-06T00:58:43.678Z,0.53
2023-03-06T01:01:12.951Z,0.60
2023-03-06T01:03:41.990Z,0.71
2023-03-06T01:06:10.837Z,0.53
2023-03-06T01:08:41.015Z,0.49
2023-03-06T01:11:10.087Z,0.55
2023-03-06T01:13:38.985Z,0.46
2023-03-06T01:16:10.721Z,0.18
2023-03-06T01:18:39.780Z,-0.09
2023-03-06T01:21:09.567Z,-0.05
2023-03-06T01:23:38.499Z,0.02
2023-03-06T01:26:09.319Z,0.12
2023-03-06T01:28:39.239Z,0.04
2023-03-06T01:31:10.318Z,0.01
2023-03-06T01:33:39.611Z,0.09
2023-03-06T01:36:11.862Z,0.12
2023-03-06T01:38:41.193Z,0.17
2023-03-06T01:41:15.745Z,0.35
2023-03-06T01:43:46.439Z,0.25
2023-03-06T01:46:26.342Z,0.42
2023-03-06T01:48:57.705Z,0.48
2023-03-06T01:51:31.342Z,0.25
2023-03-06T01:54:03.290Z,0.30
2023-03-06T01:56:33.517Z,0.29
2023-03-06T01:59:03.326Z,0.18
2023-03-06T02:01:34.239Z,-0.04
2023-03-06T02:04:03.808Z,0.10
2023-03-06T02:06:34.792Z,0.16
2023-03-06T02:09:06.760Z,0.18
2023-03-06T02:11:37.504Z,0.24
2023-03-06T02:14:06.585Z,0.28
2023-03-06T02:16:35.782Z,0.08
2023-03-06T02:19:08.613Z,0.03
2023-03-06T02:21:39.120Z,0.13
2023-03-06T02:24:23.390Z,0.00
2023-03-06T02:26:54.995Z,-0.03
2023-03-06T02:29:27.919Z,0.12
2023-03-06T02:31:59.536Z,0.16
2023-03-06T02:34:53.071Z,-0.02
2023-03-06T02:37:23.395Z,0.07
2023-03-06T02:39:59.655Z,-0.12
2023-03-06T02:42:30.227Z,0.03
2023-03-06T02:45:02.272Z,0.02
2023-03-06T02:47:31.268Z,0.03
2023-03-06T02:50:00.118Z,0.07
2023-03-06T02:52:29.748Z,0.06
2023-03-06T02:54:58.590Z,-0.19
2023-03-06T02:57:27.517Z,-0.25
2023-03-06T02:59:59.254Z,-0.35
2023-03-06T03:02:28.337Z,-0.38
2023-03-06T03:04:57.277Z,-0.74
2023-03-06T03:07:26.859Z,-0.72
2023-03-06T03:09:55.733Z,-0.75
2023-03-06T03:12:25.285Z,-0.55
2023-03-06T03:14:54.348Z,-0.78
2023-03-06T03:17:24.918Z,-0.96
2023-03-06T03:19:53.781Z,-0.82
2023-03-06T03:22:23.172Z,-0.77
2023-03-06T03:24:52.304Z,-0.86
2023-03-06T03:27:21.391Z,-0.98
2023-03-06T03:29:50.327Z,-0.75
2023-03-06T03:32:19.213Z,-0.67
2023-03-06T03:34:49.722Z,-0.55
2023-03-06T03:37:20.348Z,-0.66
2023-03-06T03:39:49.640Z,-0.69
2023-03-06T03:42:18.750Z,-0.66
2023-03-06T03:44:47.793Z,-0.62
2023-03-06T03:47:19.397Z,-0.46
2023-03-06T03:49:49.722Z,-0.46
2023-03-06T03:52:20.505Z,-0.55
2023-03-06T03:54:49.331Z,-0.53
2023-03-06T03:57:18.331Z,-0.54
2023-03-06T03:59:52.263Z,-0.55
2023-03-06T04:02:41.032Z,-0.55
2023-03-06T04:05:20.378Z,-0.57
2023-03-06T04:07:50.500Z,-0.53
2023-03-06T04:10:19.482Z,-0.54
2023-03-06T04:12:48.830Z,-0.65
2023-03-06T04:15:17.850Z,-0.76
2023-03-06T04:17:48.703Z,0.90
2023-03-06T04:20:24.194Z,0.58
2023-03-06T04:22:54.240Z,0.88
2023-03-06T04:25:23.872Z,1.36
2023-03-06T04:27:53.034Z,2.01
2023-03-06T04:30:22.681Z,2.47
2023-03-06T04:32:51.989Z,2.91
2023-03-06T04:35:21.060Z,3.07
2023-03-06T04:38:00.711Z,2.84
2023-03-06T04:40:34.272Z,1.76
2023-03-06T04:43:06.439Z,0.71
2023-03-06T04:45:36.188Z,-0.05
2023-03-06T04:48:05.486Z,-0.04
2023-03-06T04:50:34.631Z,-0.29
2023-03-06T04:53:05.291Z,-0.29
2023-03-06T04:55:34.433Z,-0.17
2023-03-06T04:58:03.850Z,-0.17
2023-03-06T05:00:32.737Z,-0.20
2023-03-06T05:03:02.558Z,-0.17
2023-03-06T05:05:31.792Z,-0.36
2023-03-06T05:08:00.809Z,-0.17
2023-03-06T05:10:31.061Z,-0.32
2023-03-06T05:12:59.896Z,-0.32
2023-03-06T05:15:29.544Z,-0.27
2023-03-06T05:17:58.376Z,-0.29
2023-03-06T05:20:28.539Z,-0.29
2023-03-06T05:22:57.403Z,-0.15
2023-03-06T05:25:26.318Z,-0.02
2023-03-06T05:27:56.535Z,-0.13
2023-03-06T05:30:25.569Z,0.05
2023-03-06T05:32:54.465Z,0.16
2023-03-06T05:35:24.510Z,0.26
2023-03-06T05:37:53.469Z,0.42
2023-03-06T05:40:22.755Z,0.16
2023-03-06T05:42:51.595Z,0.49
2023-03-06T05:45:21.870Z,0.95
2023-03-06T05:47:50.780Z,0.96
2023-03-06T05:50:19.906Z,1.24
2023-03-06T05:52:48.771Z,1.36
2023-03-06T05:55:19.652Z,1.37
2023-03-06T05:57:48.882Z,1.39
2023-03-06T06:00:19.401Z,1.38
2023-03-06T06:02:49.707Z,1.32
2023-03-06T06:05:18.695Z,1.32
2023-03-06T06:07:47.597Z,1.29
2023-03-06T06:10:17.710Z,1.36
2023-03-06T06:12:46.491Z,1.51
2023-03-06T06:15:15.506Z,1.62
2023-03-06T06:17:44.302Z,1.58
2023-03-06T06:20:17.309Z,1.71
2023-03-06T06:22:46.260Z,1.60
2023-03-06T06:25:15.394Z,1.92
2023-03-06T06:27:44.634Z,2.04
2023-03-06T06:30:16.341Z,2.04
2023-03-06T06:32:45.146Z,2.02
2023-03-06T06:35:15.513Z,2.30
2023-03-06T06:37:44.312Z,2.89
2023-03-06T06:40:13.775Z,3.44
2023-03-06T06:42:42.956Z,3.62
2023-03-06T06:45:12.685Z,3.66
2023-03-06T06:47:42.180Z,4.54
2023-03-06T06:50:13.939Z,4.71
2023-03-06T06:52:44.243Z,5.05
2023-03-06T06:55:13.681Z,5.70
2023-03-06T06:57:43.300Z,6.81
2023-03-06T07:00:15.398Z,7.31
2023-03-06T07:02:44.228Z,6.51
2023-03-06T07:05:13.068Z,5.94
2023-03-06T07:07:41.974Z,6.27
2023-03-06T07:10:16.292Z,5.81
2023-03-06T07:12:45.465Z,5.82
2023-03-06T07:15:15.233Z,5.50
2023-03-06T07:17:44.175Z,6.44
2023-03-06T07:20:13.199Z,5.02
2023-03-06T07:22:50.944Z,4.26
2023-03-06T07:25:22.452Z,3.94
2023-03-06T07:27:54.138Z,4.20
2023-03-06T07:30:24.420Z,5.15
2023-03-06T07:32:56.894Z,4.18
2023-03-06T07:35:26.591Z,5.26
2023-03-06T07:37:55.509Z,5.50
2023-03-06T07:40:26.494Z,4.88
2023-03-06T07:43:06.074Z,3.82
2023-03-06T07:45:47.000Z,3.97
2023-03-06T07:48:16.062Z,4.52
2023-03-06T07:50:45.179Z,4.47
2023-03-06T07:53:14.383Z,4.02
2023-03-06T07:55:44.622Z,4.13
2023-03-06T07:58:13.507Z,4.20
2023-03-06T08:00:42.385Z,4.26
2023-03-06T08:03:12.441Z,4.07
2023-03-06T08:05:41.468Z,4.45
2023-03-06T08:08:10.552Z,3.82
2023-03-06T08:10:39.326Z,4.96
2023-03-06T08:13:09.509Z,6.40
2023-03-06T08:15:38.340Z,6.88
2023-03-06T08:18:07.263Z,7.90
2023-03-06T08:20:36.140Z,8.38
2023-03-06T08:23:05.015Z,8.99
2023-03-06T08:25:33.871Z,9.81
2023-03-06T08:28:03.208Z,9.00
2023-03-06T08:30:33.499Z,10.10
2023-03-06T08:33:02.505Z,11.12
2023-03-06T08:35:31.367Z,11.46
2023-03-06T08:38:00.172Z,11.33
2023-03-06T08:40:30.551Z,12.13
2023-03-06T08:42:59.389Z,11.38
2023-03-06T08:45:28.276Z,10.36
2023-03-06T08:47:58.533Z,11.85
2023-03-06T08:50:27.417Z,11.61
2023-03-06T08:52:56.253Z,12.40
2023-03-06T08:55:25.058Z,12.62
2023-03-06T08:57:53.855Z,11.21
2023-03-06T09:00:22.997Z,11.70
2023-03-06T09:02:51.947Z,9.86
2023-03-06T09:05:22.351Z,8.27
2023-03-06T09:07:51.194Z,9.23
2023-03-06T09:10:22.056Z,10.94
2023-03-06T09:12:54.426Z,11.50
2023-03-06T09:15:24.948Z,12.06
2023-03-06T09:17:54.412Z,11.47
2023-03-06T09:20:24.663Z,10.48
2023-03-06T09:22:53.547Z,10.97
2023-03-06T09:25:23.360Z,12.81
2023-03-06T09:28:08.764Z,11.08
2023-03-06T09:30:41.989Z,9.41
2023-03-06T09:33:10.911Z,11.38
2023-03-06T09:35:48.495Z,12.76
2023-03-06T09:38:17.385Z,13.66
2023-03-06T09:41:00.752Z,10.84
2023-03-06T09:43:33.116Z,10.92
2023-03-06T09:46:04.049Z,11.23
2023-03-06T09:48:41.752Z,11.02
2023-03-06T09:51:16.429Z,9.75
2023-03-06T09:53:57.402Z,9.39
2023-03-06T09:56:31.150Z,9.58
2023-03-06T09:59:06.670Z,9.58
2023-03-06T10:01:41.211Z,8.82
2023-03-06T10:04:19.686Z,9.27
2023-03-06T10:06:51.757Z,9.28
2023-03-06T10:09:25.809Z,9.10
2023-03-06T10:11:58.150Z,9.45
2023-03-06T10:14:32.866Z,9.33
2023-03-06T10:17:02.442Z,9.18
2023-03-06T10:19:34.743Z,9.77
2023-03-06T10:22:12.000Z,9.26
2023-03-06T10:24:50.155Z,9.26
2023-03-06T10:27:35.737Z,9.68
2023-03-06T10:30:22.112Z,9.51
2023-03-06T10:32:57.539Z,9.49
2023-03-06T10:35:33.826Z,9.68
2023-03-06T10:38:21.079Z,9.63
2023-03-06T10:41:05.015Z,9.84
2023-03-06T10:43:36.268Z,10.05
2023-03-06T10:46:07.526Z,9.81
2023-03-06T10:48:40.910Z,10.11
2023-03-06T10:51:18.928Z,10.31
2023-03-06T10:53:55.085Z,10.12
2023-03-06T10:56:32.894Z,9.91
2023-03-06T10:59:09.981Z,9.92
2023-03-06T11:01:40.123Z,9.95
2023-03-06T11:04:24.951Z,9.88
2023-03-06T11:07:08.145Z,10.65
2023-03-06T11:09:38.603Z,10.57
2023-03-06T11:12:23.978Z,10.42
2023-03-06T11:15:18.821Z,10.41
2023-03-06T11:17:54.284Z,11.07
2023-03-06T11:20:26.746Z,11.18
2023-03-06T11:23:00.782Z,10.43
2023-03-06T11:25:36.020Z,10.71
2023-03-06T11:28:09.447Z,11.04
2023-03-06T11:30:43.509Z,10.71
2023-03-06T11:33:20.365Z,10.45
2023-03-06T11:35:57.969Z,11.02
2023-03-06T11:38:36.556Z,10.71
2023-03-06T11:41:14.994Z,11.46
2023-03-06T11:43:52.162Z,11.50
2023-03-06T11:46:25.687Z,11.31
2023-03-06T11:48:59.402Z,11.35
2023-03-06T11:51:32.599Z,11.74
2023-03-06T11:54:03.191Z,11.31
2023-03-06T11:56:42.554Z,11.48
2023-03-06T11:59:47.016Z,12.13
2023-03-06T12:02:39.357Z,11.58
2023-03-06T12:05:37.314Z,11.84
2023-03-06T12:08:41.363Z,11.36
2023-03-06T12:11:18.774Z,11.35
2023-03-06T12:14:05.981Z,11.90
2023-03-06T12:16:59.528Z,11.46
2023-03-06T12:19:41.849Z,11.59
2023-03-06T12:22:22.629Z,11.70
2023-03-06T12:25:03.204Z,12.11
2023-03-06T12:27:43.380Z,12.52
2023-03-06T12:30:37.720Z,11.94
2023-03-06T12:33:17.407Z,13.02
2023-03-06T12:36:00.959Z,12.58
2023-03-06T12:38:51.983Z,12.46
2023-03-06T12:41:29.861Z,12.71
2023-03-06T12:44:25.360Z,12.44
2023-03-06T12:46:59.225Z,12.97
2023-03-06T12:49:32.842Z,12.53
2023-03-06T12:52:03.445Z,12.02
2023-03-06T12:54:37.415Z,12.11
2023-03-06T12:57:08.733Z,12.26
2023-03-06T12:59:40.230Z,12.45
2023-03-06T13:02:33.066Z,12.20
2023-03-06T13:05:23.433Z,11.74
2023-03-06T13:08:03.830Z,12.79
2023-03-06T13:10:35.262Z,12.70
2023-03-06T13:13:05.394Z,12.60
2023-03-06T13:15:39.819Z,12.62
2023-03-06T13:18:51.046Z,12.54
2023-03-06T13:21:46.086Z,13.07
2023-03-06T13:24:21.219Z,12.51
2023-03-06T13:26:57.029Z,12.72
2023-03-06T13:29:52.334Z,12.88
2023-03-06T13:32:31.161Z,13.49
2023-03-06T13:35:02.032Z,13.29
2023-03-06T13:37:50.748Z,13.46
2023-03-06T13:40:32.017Z,13.58
2023-03-06T13:43:13.337Z,12.80
2023-03-06T13:45:43.302Z,13.29
2023-03-06T13:48:43.054Z,12.85
2023-03-06T13:51:25.729Z,12.83
2023-03-06T13:54:35.230Z,12.36
2023-03-06T13:57:19.952Z,12.50
2023-03-06T14:00:10.352Z,13.16
2023-03-06T14:03:27.868Z,12.82
2023-03-06T14:05:56.833Z,12.83
2023-03-06T14:08:30.313Z,12.85
2023-03-06T14:11:05.238Z,13.33
2023-03-06T14:13:47.090Z,13.25
2023-03-06T14:16:22.125Z,12.70
2023-03-06T14:18:52.569Z,12.74
2023-03-06T14:21:30.906Z,12.64
2023-03-06T14:24:03.403Z,12.54
2023-03-06T14:26:35.278Z,12.21
2023-03-06T14:29:05.017Z,12.24
2023-03-06T14:31:38.329Z,12.22
2023-03-06T14:34:10.212Z,12.44
2023-03-06T14:36:46.293Z,12.16
2023-03-06T14:39:21.322Z,11.74
2023-03-06T14:41:50.413Z,11.67
2023-03-06T14:44:21.787Z,11.79
2023-03-06T14:46:52.518Z,11.96
2023-03-06T14:49:22.870Z,11.85
2023-03-06T14:51:54.278Z,11.52
2023-03-06T14:54:28.695Z,11.31
2023-03-06T14:57:03.261Z,11.29
2023-03-06T14:59:38.251Z,11.43
2023-03-06T15:02:12.577Z,11.32
2023-03-06T15:04:45.457Z,11.29
2023-03-06T15:07:18.962Z,11.41
2023-03-06T15:09:50.959Z,11.22
2023-03-06T15:12:38.722Z,11.40
2023-03-06T15:15:30.069Z,11.31
2023-03-06T15:17:59.052Z,11.27
2023-03-06T15:20:43.843Z,11.09
2023-03-06T15:23:23.060Z,10.98
2023-03-06T15:25:56.348Z,10.89
2023-03-06T15:28:31.295Z,10.87
2023-03-06T15:31:21.315Z,10.78
2023-03-06T15:34:18.723Z,10.43
2023-03-06T15:36:50.035Z,10.42
2023-03-06T15:39:38.319Z,10.49
2023-03-06T15:42:28.096Z,10.35
2023-03-06T15:45:03.075Z,10.34
2023-03-06T15:47:32.762Z,10.16
2023-03-06T15:50:03.282Z,10.22
2023-03-06T15:52:32.088Z,10.21
2023-03-06T15:55:00.914Z,10.30
2023-03-06T15:57:32.199Z,10.27
2023-03-06T16:00:02.161Z,10.16
2023-03-06T16:02:40.398Z,10.08
2023-03-06T16:05:16.869Z,10.12
2023-03-06T16:07:46.764Z,10.15
2023-03-06T16:10:17.590Z,10.18
2023-03-06T16:12:50.537Z,10.31
2023-03-06T16:15:21.817Z,10.43
2023-03-06T16:17:50.803Z,10.23
2023-03-06T16:20:21.690Z,10.23
2023-03-06T16:22:51.191Z,10.18
2023-03-06T16:25:22.682Z,10.56
2023-03-06T16:27:56.847Z,10.84
2023-03-06T16:30:27.562Z,11.07
2023-03-06T16:32:56.427Z,11.03
2023-03-06T16:35:25.596Z,11.06
2023-03-06T16:37:54.746Z,11.23
2023-03-06T16:40:25.615Z,11.29
2023-03-06T16:42:56.627Z,11.38
2023-03-06T16:45:25.988Z,11.18
2023-03-06T16:47:54.877Z,11.31
2023-03-06T16:50:26.366Z,11.31
2023-03-06T16:52:57.078Z,11.11
2023-03-06T16:55:27.304Z,10.72
2023-03-06T16:57:57.758Z,10.70
2023-03-06T17:00:31.127Z,10.57
2023-03-06T17:03:00.765Z,10.64
2023-03-06T17:05:33.136Z,10.59
2023-03-06T17:08:02.213Z,10.81
2023-03-06T17:10:31.200Z,11.08
2023-03-06T17:13:02.119Z,11.22
2023-03-06T17:15:30.993Z,10.73
2023-03-06T17:17:59.867Z,10.31
2023-03-06T17:20:29.615Z,10.54
2023-03-06T17:22:58.448Z,10.30
2023-03-06T17:25:27.312Z,10.21
2023-03-06T17:27:56.112Z,9.91
2023-03-06T17:30:26.285Z,9.76
2023-03-06T17:32:55.107Z,9.88
2023-03-06T17:35:23.940Z,9.87
2023-03-06T17:37:52.832Z,9.81
2023-03-06T17:40:21.746Z,9.86
2023-03-06T17:42:51.375Z,9.84
2023-03-06T17:45:22.465Z,9.70
2023-03-06T17:47:55.607Z,9.88
2023-03-06T17:50:24.453Z,9.90
2023-03-06T17:52:53.301Z,9.85
2023-03-06T17:55:22.104Z,9.89
2023-03-06T17:57:52.896Z,10.19
2023-03-06T18:00:23.028Z,10.20
2023-03-06T18:02:52.278Z,9.63
2023-03-06T18:05:22.520Z,9.72
2023-03-06T18:07:51.300Z,9.58
2023-03-06T18:10:20.246Z,9.51
2023-03-06T18:12:49.122Z,9.35
2023-03-06T18:15:18.125Z,9.48
2023-03-06T18:17:47.295Z,9.25
2023-03-06T18:20:16.270Z,9.37
2023-03-06T18:22:46.485Z,9.39
2023-03-06T18:25:15.327Z,9.46
2023-03-06T18:27:44.287Z,9.36
2023-03-06T18:30:14.571Z,9.48
2023-03-06T18:32:43.505Z,9.35
2023-03-06T18:35:12.402Z,9.16
2023-03-06T18:37:41.216Z,9.15
2023-03-06T18:40:13.296Z,9.12
2023-03-06T18:42:42.169Z,9.14
2023-03-06T18:45:12.875Z,9.12
2023-03-06T18:47:42.018Z,9.26
2023-03-06T18:50:16.466Z,9.38
2023-03-06T18:52:45.590Z,9.38
2023-03-06T18:55:15.894Z,9.36
2023-03-06T18:57:44.730Z,9.34
2023-03-06T19:00:14.319Z,9.36
2023-03-06T19:02:43.104Z,9.39
2023-03-06T19:05:12.011Z,9.28
2023-03-06T19:07:40.895Z,9.36
2023-03-06T19:10:11.076Z,9.00
2023-03-06T19:12:41.259Z,9.56
2023-03-06T19:15:10.781Z,10.33
2023-03-06T19:17:39.638Z,10.40
2023-03-06T19:20:09.698Z,10.21
2023-03-06T19:22:38.480Z,9.56
2023-03-06T19:25:08.458Z,9.82
2023-03-06T19:27:39.167Z,10.19
2023-03-06T19:30:13.677Z,10.82
2023-03-06T19:32:46.771Z,11.02
2023-03-06T19:35:15.634Z,10.96
2023-03-06T19:37:44.419Z,10.99
2023-03-06T19:40:14.221Z,11.32
2023-03-06T19:42:43.229Z,10.80
2023-03-06T19:45:13.755Z,9.64
2023-03-06T19:47:42.603Z,8.98
2023-03-06T19:50:12.503Z,8.92
2023-03-06T19:52:41.346Z,9.79
2023-03-06T19:55:11.484Z,10.33
2023-03-06T19:57:40.317Z,10.38
2023-03-06T20:00:11.228Z,9.84
2023-03-06T20:02:43.917Z,10.11
2023-03-06T20:05:12.816Z,10.88
2023-03-06T20:07:41.601Z,11.06
2023-03-06T20:10:11.900Z,10.73
2023-03-06T20:12:40.779Z,10.12
2023-03-06T20:15:10.731Z,9.86
2023-03-06T20:17:40.542Z,9.41
2023-03-06T20:20:12.723Z,9.23
2023-03-06T20:22:41.716Z,9.07
2023-03-06T20:25:17.222Z,9.12
2023-03-06T20:27:46.142Z,8.94
2023-03-06T20:30:15.604Z,8.93
2023-03-06T20:32:44.541Z,8.92
2023-03-06T20:35:14.829Z,8.80
2023-03-06T20:37:43.699Z,8.81
2023-03-06T20:40:13.646Z,8.91
2023-03-06T20:42:42.576Z,8.89
2023-03-06T20:45:11.962Z,8.82
2023-03-06T20:47:47.340Z,8.68
2023-03-06T20:50:17.942Z,8.53
2023-03-06T20:52:46.854Z,8.50
2023-03-06T20:55:15.789Z,8.06
2023-03-06T20:57:44.676Z,7.90
2023-03-06T21:00:14.286Z,8.05
2023-03-06T21:02:43.146Z,8.06
2023-03-06T21:05:12.255Z,7.99
2023-03-06T21:07:42.607Z,7.90
2023-03-06T21:10:13.428Z,7.53
2023-03-06T21:12:42.455Z,7.42
2023-03-06T21:15:13.008Z,7.50
2023-03-06T21:17:41.952Z,7.68
2023-03-06T21:20:12.184Z,7.66
2023-03-06T21:22:42.499Z,7.74
2023-03-06T21:25:12.828Z,7.71
2023-03-06T21:27:41.796Z,7.78
2023-03-06T21:30:13.374Z,7.76
2023-03-06T21:32:42.585Z,7.74
2023-03-06T21:35:11.499Z,7.67
2023-03-06T21:37:40.452Z,7.50
2023-03-06T21:40:12.848Z,7.78
2023-03-06T21:42:41.727Z,7.83
2023-03-06T21:45:12.084Z,7.60
2023-03-06T21:47:41.069Z,7.46
2023-03-06T21:50:12.293Z,7.37
2023-03-06T21:52:41.484Z,7.58
2023-03-06T21:55:12.026Z,7.46
2023-03-06T21:57:41.242Z,7.36
2023-03-06T22:00:12.909Z,7.28
2023-03-06T22:02:42.319Z,7.31
2023-03-06T22:05:11.423Z,6.85
2023-03-06T22:07:40.814Z,6.39
2023-03-06T22:10:14.397Z,6.18
2023-03-06T22:12:43.249Z,6.30
2023-03-06T22:15:12.472Z,6.19
2023-03-06T22:17:41.708Z,6.26
2023-03-06T22:20:13.161Z,6.18
2023-03-06T22:22:42.373Z,6.26
2023-03-06T22:25:13.125Z,6.22
2023-03-06T22:27:41.945Z,6.15
2023-03-06T22:30:11.979Z,6.07
2023-03-06T22:32:40.983Z,6.16
2023-03-06T22:35:10.630Z,6.24
2023-03-06T22:37:39.484Z,6.19
2023-03-06T22:40:09.463Z,5.35
2023-03-06T22:42:39.678Z,5.64
2023-03-06T22:45:10.320Z,5.72
2023-03-06T22:47:39.382Z,5.74
2023-03-06T22:50:09.081Z,5.65
2023-03-06T22:52:38.031Z,5.51
2023-03-06T22:55:08.065Z,5.63
2023-03-06T22:57:36.893Z,5.60
2023-03-06T23:00:09.105Z,5.45
2023-03-06T23:02:38.695Z,5.33
2023-03-06T23:05:07.777Z,4.79
2023-03-06T23:07:36.654Z,5.10
2023-03-06T23:10:06.917Z,5.17
2023-03-06T23:12:54.254Z,5.30
2023-03-06T23:15:43.177Z,5.39
2023-03-06T23:18:31.408Z,5.06
2023-03-06T23:21:20.583Z,5.02
2023-03-06T23:24:08.577Z,5.20
2023-03-06T23:26:37.468Z,5.26
2023-03-06T23:29:06.322Z,4.70
2023-03-06T23:31:37.450Z,4.74
2023-03-06T23:34:06.350Z,4.70
2023-03-06T23:36:35.220Z,4.85
2023-03-06T23:39:04.274Z,4.75
2023-03-06T23:41:33.221Z,4.61
2023-03-06T23:44:02.087Z,4.29
2023-03-06T23:46:31.294Z,4.35
2023-03-06T23:49:02.088Z,4.58
2023-03-06T23:51:31.000Z,4.38
2023-03-06T23:54:02.097Z,3.65
2023-03-06T23:56:30.879Z,3.87
2023-03-06T23:58:59.705Z,4.02
